Disclaimer

Please do not use the information listed here in-flight or in-navigation, as they are not provided to us by the airports but are provided by volunteers, so they might be outdated.

Search


Regions


Airport information page

Radio informations:
Tower (TWR) - 126.2 MHz
DRAGON OPS - 62.45 MHz
Ground (GND) - 121.85 MHz
GCA - 136.8 MHz
DEP - 121.15 MHz
Approach (APP) - 123.8 MHz
BRICKWALL - 120.0 MHz

Airport informations:
Latitude: 37° 26' 45.00" N
Longitude: 127° 06' 50.00" E
Elevation: 92 feet - 28 meters
Operating hours: N/A
Operating agency: Military
Timezone: UTC+9
Fuel: JP-8, SemiKeroscene MIL Spec T-83133, without icing inhibitor

115/145 octane gasoline, leaded, MIL-L-5572F (PURPLE)

Runway information:
01/19 - 9000 x 150 feet< - >2743 x 46 meters
02/20 - 9700 x 150 feet< - >2957 x 46 meters

Recent METARs:
RKSM 190100Z 20002KT 9999 FEW040 07/02 A3022
RKSM 190200Z 20003KT 9999 FEW040 10/03 A3022
RKSM 190200Z 20003KT 9999 FEW040 10/03 A3022

Airport on the map: